Time;durP1;ratioP1;P1;durP2;ratioP2;P2;SDS_P1;SDS_P2;PMS_P1;PMS_P2;Temp;Humidity;BMP_temperature;BMP_pressure;BME280_temperature;BME280_humidity;BME280_pressure;Samples;Min_cycle;Max_cycle;Signal;HPM_P1;HPM_P2
2023/02/27 00:00:52;;;;;;;0.00;0.00;;;;;;;-0.24;70.98;101811.59;6313190;22;20003;-78
2023/02/27 00:03:18;;;;;;;0.10;0.10;;;;;;;-0.38;71.04;101801.41;6237593;22;20379;-79
2023/02/27 00:05:43;;;;;;;0.00;0.00;;;;;;;-0.43;71.42;101803.75;6290205;22;20014;-80
2023/02/27 00:08:11;;;;;;;0.00;0.00;;;;;;;-0.45;71.01;101805.75;6293938;22;20491;-79
2023/02/27 00:10:50;;;;;;;0.00;0.00;;;;;;;-0.58;71.31;101793.59;6262222;22;20002;-80
2023/02/27 00:13:18;;;;;;;0.00;0.00;;;;;;;-0.54;71.50;101810.22;6285331;22;20386;-80
2023/02/27 00:15:55;;;;;;;0.10;0.10;;;;;;;-0.43;70.61;101833.31;6314135;22;20007;-80
2023/02/27 00:18:23;;;;;;;0.10;0.10;;;;;;;-0.47;70.86;101831.94;6288549;22;19999;-80
2023/02/27 00:20:48;;;;;;;0.10;0.10;;;;;;;-0.69;70.97;101799.22;6262559;22;20034;-79
2023/02/27 00:23:16;;;;;;;0.00;0.00;;;;;;;-0.57;71.27;101824.84;6260822;22;20003;-80
2023/02/27 00:25:42;;;;;;;0.10;0.10;;;;;;;-0.59;71.04;101817.94;6288854;22;20003;-78
2023/02/27 00:28:08;;;;;;;0.00;0.00;;;;;;;-0.62;71.17;101813.72;6285057;22;20003;-80
2023/02/27 00:30:33;;;;;;;0.10;0.10;;;;;;;-0.58;71.98;101808.88;6261441;22;20061;-79
2023/02/27 00:33:02;;;;;;;0.00;0.00;;;;;;;-0.47;71.81;101821.19;6263484;22;20003;-81
2023/02/27 00:35:28;;;;;;;0.00;0.00;;;;;;;-0.36;71.31;101839.75;6285262;22;20011;-76
2023/02/27 00:37:54;;;;;;;0.10;0.10;;;;;;;-0.46;71.42;101812.16;6287351;22;20018;-75
2023/02/27 00:40:19;;;;;;;0.10;0.10;;;;;;;-0.49;72.30;101807.09;6257117;22;20333;-76
2023/02/27 00:42:47;;;;;;;0.05;0.05;;;;;;;-0.33;72.11;101833.22;6258440;22;20091;-75
2023/02/27 00:45:12;;;;;;;0.00;0.00;;;;;;;-0.31;71.58;101837.41;6283099;22;20007;-75
2023/02/27 00:47:38;;;;;;;0.10;0.10;;;;;;;-0.41;72.10;101825.94;6259724;22;20333;-76
2023/02/27 00:50:04;;;;;;;0.00;0.00;;;;;;;-0.39;72.49;101819.41;6259238;22;20003;-75
2023/02/27 00:52:32;;;;;;;0.00;0.00;;;;;;;-0.34;72.23;101826.16;6256563;22;20774;-74
2023/02/27 00:54:58;;;;;;;0.00;0.00;;;;;;;-0.35;73.34;101825.31;6313226;22;20029;-75
2023/02/27 00:57:23;;;;;;;0.10;0.10;;;;;;;-0.32;72.60;101833.06;6281286;22;20003;-76
2023/02/27 00:59:49;;;;;;;0.00;0.00;;;;;;;-0.35;73.15;101836.06;6283389;22;20003;-74
2023/02/27 01:02:14;;;;;;;0.10;0.10;;;;;;;-0.40;73.35;101833.00;6259749;22;20010;-75
2023/02/27 01:04:40;;;;;;;0.00;0.00;;;;;;;-0.42;73.89;101830.47;6280539;22;20034;-74
2023/02/27 01:07:07;;;;;;;0.08;0.08;;;;;;;-0.43;74.40;101836.84;6284475;22;20007;-74
2023/02/27 01:09:32;;;;;;;0.00;0.00;;;;;;;-0.56;73.97;101818.44;6285969;22;20062;-73
2023/02/27 01:11:58;;;;;;;0.00;0.00;;;;;;;-0.63;74.46;101811.19;6264991;22;20042;-74
2023/02/27 01:14:24;;;;;;;0.00;0.00;;;;;;;-0.52;73.64;101826.22;6256528;22;20054;-76
2023/02/27 01:16:49;;;;;;;0.00;0.00;;;;;;;-0.54;74.66;101821.84;6259032;22;20011;-75
2023/02/27 01:19:15;;;;;;;0.00;0.00;;;;;;;-0.52;75.29;101836.97;6285232;22;20007;-74
2023/02/27 01:21:40;;;;;;;0.00;0.00;;;;;;;-0.58;74.40;101831.22;6309438;22;19991;-75
2023/02/27 01:24:07;;;;;;;0.00;0.00;;;;;;;-0.57;74.70;101835.59;6286019;22;20011;-74
2023/02/27 01:26:32;;;;;;;0.10;0.10;;;;;;;-0.59;74.35;101839.44;6233160;22;20044;-74
2023/02/27 01:28:59;;;;;;;0.00;0.00;;;;;;;-0.68;75.08;101825.09;6234176;22;20015;-75
2023/02/27 01:31:24;;;;;;;0.10;0.10;;;;;;;-0.65;75.50;101834.69;6284865;22;19999;-74
2023/02/27 01:33:50;;;;;;;0.00;0.00;;;;;;;-0.66;75.33;101833.84;6314063;22;20146;-74
2023/02/27 01:36:16;;;;;;;0.10;0.10;;;;;;;-0.72;75.11;101823.72;6261504;22;20041;-75
2023/02/27 01:38:41;;;;;;;0.00;0.00;;;;;;;-0.78;75.35;101829.72;6282063;22;20025;-74
2023/02/27 01:41:07;;;;;;;0.10;0.10;;;;;;;-0.75;75.01;101830.25;6285658;22;20076;-73
2023/02/27 01:43:33;;;;;;;0.00;0.00;;;;;;;-0.80;75.77;101837.13;6283904;22;20090;-73
2023/02/27 01:45:59;;;;;;;0.00;0.00;;;;;;;-0.85;75.34;101828.66;6284115;22;20007;-73
2023/02/27 01:48:28;;;;;;;0.00;0.00;;;;;;;-0.86;76.57;101829.66;6233504;22;20000;-74
2023/02/27 01:50:59;;;;;;;0.00;0.00;;;;;;;-1.03;75.58;101816.13;6282106;22;20007;-74
2023/02/27 01:53:27;;;;;;;0.00;0.00;;;;;;;-1.02;76.49;101812.44;6283579;22;20003;-73
2023/02/27 01:56:04;;;;;;;0.10;0.10;;;;;;;-0.93;76.49;101827.59;6254759;22;20015;-74
2023/02/27 01:58:30;;;;;;;0.08;0.08;;;;;;;-0.98;76.14;101824.56;6284701;22;19999;-73
2023/02/27 02:00:56;;;;;;;0.00;0.00;;;;;;;-1.03;76.25;101821.47;6282408;22;20059;-75
2023/02/27 02:03:32;;;;;;;0.10;0.10;;;;;;;-0.99;76.77;101824.69;6258834;22;20056;-73
2023/02/27 02:06:01;;;;;;;0.10;0.10;;;;;;;-1.00;77.48;101821.16;6285148;22;19995;-74
2023/02/27 02:08:30;;;;;;;0.00;0.00;;;;;;;-1.07;76.56;101804.84;6313210;22;20003;-75
2023/02/27 02:10:57;;;;;;;0.10;0.10;;;;;;;-1.01;77.40;101814.09;6312812;22;20060;-73
2023/02/27 02:13:26;;;;;;;0.10;0.10;;;;;;;-1.02;77.75;101820.50;6293520;22;20041;-73
2023/02/27 02:16:22;;;;;;;0.10;0.10;;;;;;;-1.00;76.90;101821.16;6289250;22;20037;-77
2023/02/27 02:19:12;;;;;;;0.00;0.00;;;;;;;-1.08;76.72;101813.03;6288769;22;19998;-77
2023/02/27 02:21:49;;;;;;;0.00;0.00;;;;;;;-1.06;77.30;101822.63;6311313;22;20007;-77
2023/02/27 02:24:29;;;;;;;0.00;0.00;;;;;;;-1.07;77.62;101809.38;6313853;22;20003;-76
2023/02/27 02:27:04;;;;;;;0.00;0.00;;;;;;;-1.09;78.21;101812.19;6285963;22;19999;-77
2023/02/27 02:29:44;;;;;;;0.00;0.00;;;;;;;-1.12;77.59;101807.16;6284376;22;20030;-76
2023/02/27 02:32:41;;;;;;;0.10;0.10;;;;;;;-1.19;77.36;101810.63;6286893;22;20352;-77
2023/02/27 02:35:40;;;;;;;0.00;0.00;;;;;;;-1.24;77.87;101808.41;6284184;22;20011;-76
2023/02/27 02:38:05;;;;;;;0.10;0.10;;;;;;;-1.24;78.08;101801.19;6285615;22;20038;-77
2023/02/27 02:40:52;;;;;;;0.00;0.00;;;;;;;-1.27;78.42;101798.81;6286519;22;20414;-77
2023/02/27 02:43:29;;;;;;;0.00;0.00;;;;;;;-1.30;78.97;101796.44;6284150;22;20026;-78
2023/02/27 02:46:07;;;;;;;0.00;0.00;;;;;;;-1.24;78.35;101811.91;6285231;22;20034;-76
2023/02/27 02:48:33;;;;;;;0.00;0.00;;;;;;;-1.24;79.71;101809.22;6284828;22;20049;-77
2023/02/27 02:51:22;;;;;;;0.00;0.00;;;;;;;-1.23;78.71;101805.56;6282675;22;20364;-77
2023/02/27 02:54:06;;;;;;;0.00;0.00;;;;;;;-1.22;79.23;101811.75;6284811;22;20003;-77
2023/02/27 02:56:48;;;;;;;0.00;0.00;;;;;;;-1.25;78.96;101807.53;6285342;22;20027;-77
2023/02/27 02:59:40;;;;;;;0.00;0.00;;;;;;;-1.26;80.25;101800.47;6282688;22;20003;-76
2023/02/27 03:02:10;;;;;;;0.00;0.00;;;;;;;-1.23;79.62;101800.19;6313906;22;20030;-77
2023/02/27 03:04:50;;;;;;;0.00;0.00;;;;;;;-1.23;79.88;101797.50;6316673;22;19999;-77
2023/02/27 03:07:41;;;;;;;0.00;0.00;;;;;;;-1.16;79.28;101800.41;6313217;22;20004;-77
2023/02/27 03:10:50;;;;;;;0.10;0.10;;;;;;;-1.21;80.55;101800.03;6296489;22;20017;-77
2023/02/27 03:13:27;;;;;;;0.00;0.00;;;;;;;-1.18;80.75;101798.84;6266736;22;20007;-77
2023/02/27 03:16:35;;;;;;;0.00;0.00;;;;;;;-1.20;80.24;101803.56;6286319;22;19995;-76
2023/02/27 03:19:12;;;;;;;0.10;0.10;;;;;;;-1.18;80.35;101788.13;6286481;22;20003;-75
2023/02/27 03:21:55;;;;;;;0.00;0.00;;;;;;;-1.25;80.84;101775.31;6309491;22;20003;-76
2023/02/27 03:24:40;;;;;;;0.00;0.00;;;;;;;-1.22;80.20;101779.53;6284326;22;20009;-76
2023/02/27 03:27:08;;;;;;;0.03;0.03;;;;;;;-1.14;79.92;101793.03;6312929;22;20031;-77
2023/02/27 03:29:46;;;;;;;0.00;0.00;;;;;;;-1.15;81.33;101795.88;6286181;22;20094;-76
2023/02/27 03:32:21;;;;;;;0.10;0.10;;;;;;;-1.19;81.26;101789.13;6286604;22;20148;-76
2023/02/27 03:34:49;;;;;;;0.10;0.10;;;;;;;-1.36;80.69;101777.41;6307825;22;19999;-76
2023/02/27 03:37:45;;;;;;;0.10;0.10;;;;;;;-1.31;80.49;101794.75;6284381;22;20023;-77
2023/02/27 03:41:01;;;;;;;0.10;0.10;;;;;;;-1.31;80.72;101792.06;6309147;22;20015;-77
2023/02/27 03:43:47;;;;;;;0.00;0.00;;;;;;;-1.35;81.11;101787.97;6187322;23;20107;-78
2023/02/27 03:46:20;;;;;;;0.00;0.00;;;;;;;-1.33;80.69;101788.69;6278152;22;20007;-77
2023/02/27 03:48:48;;;;;;;0.00;0.00;;;;;;;-1.43;81.11;101772.66;6311272;22;20091;-77
2023/02/27 03:51:20;;;;;;;0.00;0.00;;;;;;;-1.38;81.28;101790.97;6290385;22;20029;-78
2023/02/27 03:54:08;;;;;;;0.10;0.10;;;;;;;-1.38;81.71;101790.97;6285903;22;20064;-75
2023/02/27 03:57:01;;;;;;;0.10;0.10;;;;;;;-1.39;82.08;101783.91;6310366;22;20003;-76
2023/02/27 03:59:28;;;;;;;0.00;0.00;;;;;;;-1.37;81.54;101790.00;6262551;22;20003;-76
2023/02/27 04:01:55;;;;;;;0.00;0.00;;;;;;;-1.40;82.21;101782.25;6312639;22;20038;-76
2023/02/27 04:04:21;;;;;;;0.00;0.00;;;;;;;-1.36;81.83;101783.59;6309041;22;20053;-78
2023/02/27 04:09:55;;;;;;;0.00;0.00;;;;;;;-1.44;81.58;101799.66;6308212;22;20010;-77
2023/02/27 04:12:55;;;;;;;0.00;0.00;;;;;;;-1.49;82.35;101805.47;6281690;22;20010;-76
2023/02/27 04:15:44;;;;;;;0.00;0.00;;;;;;;-1.54;81.95;101797.03;6283847;22;20007;-76
2023/02/27 04:18:39;;;;;;;0.00;0.00;;;;;;;-1.60;82.68;101790.44;6281727;22;19999;-79
2023/02/27 04:21:10;;;;;;;0.10;0.10;;;;;;;-1.60;82.63;101795.78;6281521;22;20003;-77
2023/02/27 04:23:35;;;;;;;0.10;0.10;;;;;;;-1.61;81.95;101796.81;6310388;22;19995;-76
2023/02/27 04:26:13;;;;;;;0.00;0.00;;;;;;;-1.62;83.05;101800.47;6282565;22;20086;-76
2023/02/27 04:28:38;;;;;;;0.10;0.10;;;;;;;-1.60;82.97;101795.78;6306971;22;20074;-77
2023/02/27 04:31:16;;;;;;;0.00;0.00;;;;;;;-1.61;83.41;101791.44;6284845;22;20007;-77
2023/02/27 04:33:51;;;;;;;0.10;0.10;;;;;;;-1.62;82.50;101792.44;6307117;22;20003;-76
2023/02/27 04:36:27;;;;;;;;;;;;;;;-1.65;82.83;101795.44;6310433;22;20008;-77
2023/02/27 04:39:13;;;;;;;0.00;0.00;;;;;;;-1.66;83.12;101795.56;6281602;22;19914;-76
2023/02/27 04:42:16;;;;;;;0.10;0.10;;;;;;;-1.70;83.24;101799.56;6284935;22;20499;-76
2023/02/27 04:44:43;;;;;;;0.10;0.10;;;;;;;-1.73;83.75;101803.38;6132692;23;20012;-77
2023/02/27 04:47:11;;;;;;;0.05;0.05;;;;;;;-1.78;83.28;101803.00;6266962;22;20011;-77
2023/02/27 04:50:09;;;;;;;0.00;0.00;;;;;;;-1.83;84.09;101807.97;6291325;22;19999;-77
2023/02/27 04:52:47;;;;;;;0.10;0.10;;;;;;;-1.89;84.01;101803.19;6264213;22;20017;-77
2023/02/27 04:55:31;;;;;;;0.00;0.00;;;;;;;-1.98;83.88;101795.06;6281791;22;20683;-76
2023/02/27 04:58:03;;;;;;;0.00;0.00;;;;;;;-1.98;84.04;101802.25;6306962;22;20011;-77
2023/02/27 05:00:31;;;;;;;0.10;0.10;;;;;;;-1.94;83.96;101796.44;6307177;22;20232;-76
2023/02/27 05:03:04;;;;;;;0.00;0.00;;;;;;;-2.02;84.12;101788.31;6284829;22;20509;-77
2023/02/27 05:05:34;;;;;;;0.00;0.00;;;;;;;-2.03;84.38;101775.91;6308606;22;20003;-75
2023/02/27 05:08:08;;;;;;;0.00;0.00;;;;;;;-1.82;84.17;101812.34;6308753;22;20003;-77
2023/02/27 05:10:45;;;;;;;0.03;0.03;;;;;;;-1.80;83.88;101813.00;6305024;22;19999;-76
2023/02/27 05:13:18;;;;;;;0.00;0.00;;;;;;;-1.69;83.83;101810.13;6308852;22;20010;-78
2023/02/27 05:16:26;;;;;;;0.00;0.00;;;;;;;-1.68;84.23;101806.47;6279921;22;20015;-77
2023/02/27 05:18:58;;;;;;;0.00;0.00;;;;;;;-1.75;84.35;101794.66;6218970;22;20013;-76
2023/02/27 05:21:29;;;;;;;0.10;0.10;;;;;;;-1.74;84.32;101811.56;6283797;22;20003;-76
2023/02/27 05:23:57;;;;;;;0.00;0.00;;;;;;;-1.90;83.57;101805.03;6312369;22;20022;-76
2023/02/27 05:26:31;;;;;;;0.05;0.05;;;;;;;-2.02;84.28;101804.38;6279014;22;20043;-76
2023/02/27 05:29:21;;;;;;;0.00;0.00;;;;;;;-2.13;85.11;101796.56;6308245;22;20002;-76
2023/02/27 05:31:53;;;;;;;0.00;0.00;;;;;;;-2.14;84.85;101795.69;6313620;22;19999;-77
2023/02/27 05:34:28;;;;;;;0.00;0.00;;;;;;;-2.11;85.43;101792.72;6285153;22;20003;-78
2023/02/27 05:37:06;;;;;;;0.10;0.10;;;;;;;-2.08;85.36;101794.25;6286179;22;19995;-78
2023/02/27 05:39:36;;;;;;;0.00;0.00;;;;;;;-2.08;84.79;101806.84;6276954;22;19999;-77
2023/02/27 05:42:13;;;;;;;0.00;0.00;;;;;;;-2.19;84.73;101792.63;6280402;22;20015;-77
2023/02/27 05:44:46;;;;;;;0.00;0.00;;;;;;;-2.30;84.84;101774.91;6304215;22;20317;-77
2023/02/27 05:47:26;;;;;;;0.10;0.10;;;;;;;-2.21;86.01;101799.97;6281753;22;20302;-76
2023/02/27 05:50:01;;;;;;;0.03;0.03;;;;;;;-2.24;85.60;101794.06;6278398;22;20078;-80
2023/02/27 05:52:29;;;;;;;0.00;0.00;;;;;;;-2.34;85.52;101784.22;6308020;22;20027;-76
2023/02/27 05:55:02;;;;;;;0.00;0.00;;;;;;;-2.18;85.00;101809.56;6280137;22;20029;-75
2023/02/27 05:58:00;;;;;;;0.00;0.00;;;;;;;-2.30;85.46;101815.09;6309161;22;20003;-75
2023/02/27 06:00:36;;;;;;;0.00;0.00;;;;;;;-2.40;85.51;101798.22;6277922;22;20138;-74
2023/02/27 06:03:02;;;;;;;0.00;0.00;;;;;;;-2.37;86.37;101803.28;6283501;22;20003;-75
2023/02/27 06:05:28;;;;;;;0.10;0.10;;;;;;;-2.37;86.02;101784.50;6280521;22;20056;-75
2023/02/27 06:07:53;;;;;;;0.00;0.00;;;;;;;-2.26;85.83;101785.31;6309701;22;20338;-76
2023/02/27 06:10:20;;;;;;;0.00;0.00;;;;;;;-2.18;86.39;101790.78;6279118;22;20000;-76
2023/02/27 06:12:45;;;;;;;0.00;0.00;;;;;;;-2.11;85.64;101799.94;6232935;22;20053;-75
2023/02/27 06:15:17;;;;;;;0.10;0.10;;;;;;;-2.06;85.88;101808.34;6279450;22;20003;-76
2023/02/27 06:17:43;;;;;;;0.10;0.10;;;;;;;-2.06;86.77;101796.78;6281308;22;20003;-77
2023/02/27 06:20:09;;;;;;;0.00;0.00;;;;;;;-2.02;86.25;101798.19;6309159;22;20017;-77
2023/02/27 06:22:35;;;;;;;0.00;0.00;;;;;;;-1.99;86.56;101809.44;6280168;22;20036;-77
2023/02/27 06:25:00;;;;;;;0.10;0.10;;;;;;;-2.08;87.03;101786.22;6256070;22;20060;-76
2023/02/27 06:27:28;;;;;;;0.10;0.10;;;;;;;-1.98;86.75;101799.59;6253698;22;20026;-77
2023/02/27 06:29:54;;;;;;;0.10;0.10;;;;;;;-1.93;87.24;101813.38;6255374;22;20055;-76
2023/02/27 06:32:25;;;;;;;0.00;0.00;;;;;;;-1.99;87.04;101808.59;6279004;22;20003;-76
2023/02/27 06:35:05;;;;;;;0.00;0.00;;;;;;;-2.09;88.01;101802.47;6281258;22;20016;-77
2023/02/27 06:37:33;;;;;;;0.00;0.00;;;;;;;-2.20;87.85;101784.75;6278354;22;20012;-75
2023/02/27 06:39:58;;;;;;;0.00;0.00;;;;;;;-2.05;88.11;101802.00;6282224;22;20004;-76
2023/02/27 06:42:26;;;;;;;0.00;0.00;;;;;;;-2.02;87.77;101809.75;6281525;22;20029;-77
2023/02/27 06:44:52;;;;;;;0.10;0.10;;;;;;;-2.09;87.79;101803.28;6254917;22;19996;-77
2023/02/27 06:47:40;;;;;;;;;;;;;;;;;;;;;
2023/02/27 06:50:27;;;;;;;0.10;0.10;;;;;;;-2.04;88.11;101814.41;6282929;22;20083;-76
2023/02/27 06:53:21;;;;;;;0.10;0.10;;;;;;;-1.94;88.92;101817.91;6282421;22;20137;-76
2023/02/27 06:55:46;;;;;;;0.10;0.10;;;;;;;-1.90;88.97;101822.97;6309683;22;19999;-76
2023/02/27 06:58:11;;;;;;;0.00;0.00;;;;;;;-2.07;88.32;101787.91;6260160;22;20034;-76
2023/02/27 07:00:36;;;;;;;0.10;0.10;;;;;;;-1.98;88.83;101810.31;6258401;22;20003;-76
2023/02/27 07:03:03;;;;;;;0.00;0.00;;;;;;;-2.01;89.22;101814.13;6272052;22;20090;-77
2023/02/27 07:05:32;;;;;;;0.10;0.10;;;;;;;-1.96;88.91;101822.56;6237996;22;20007;-76
2023/02/27 07:08:02;;;;;;;0.00;0.00;;;;;;;-1.81;89.41;101827.41;6285130;22;20008;-75
2023/02/27 07:10:28;;;;;;;0.00;0.00;;;;;;;-1.73;89.29;101835.56;6279762;22;20194;-75
2023/02/27 07:12:54;;;;;;;0.00;0.00;;;;;;;-1.63;89.02;101840.88;6282769;22;20029;-76
2023/02/27 07:15:20;;;;;;;0.00;0.00;;;;;;;-1.40;90.09;101852.03;6276728;22;20406;-74
2023/02/27 07:17:47;;;;;;;0.00;0.00;;;;;;;-1.36;89.17;101837.28;6281962;22;20320;-76
2023/02/27 07:20:16;;;;;;;0.00;0.00;;;;;;;-1.17;88.32;101838.13;6279889;22;20011;-75
2023/02/27 07:22:46;;;;;;;0.00;0.00;;;;;;;-1.00;88.40;101852.56;6252662;22;20014;-76
2023/02/27 07:25:12;;;;;;;0.00;0.00;;;;;;;-0.86;88.45;101862.75;6256128;22;20384;-75
2023/02/27 07:27:37;;;;;;;0.10;0.10;;;;;;;-0.60;88.50;101868.16;6280286;22;20084;-76
2023/02/27 07:30:03;;;;;;;0.10;0.10;;;;;;;-0.43;88.12;101873.66;6256301;22;20011;-76
2023/02/27 07:32:29;;;;;;;0.00;0.00;;;;;;;-0.29;87.77;101867.69;6281864;22;20004;-76
2023/02/27 07:34:54;;;;;;;0.03;0.03;;;;;;;-0.28;87.50;101861.28;6284605;22;20314;-76
2023/02/27 07:37:20;;;;;;;0.00;0.00;;;;;;;-0.06;87.19;101875.19;6307874;22;20015;-75
2023/02/27 07:39:45;;;;;;;0.00;0.00;;;;;;;-0.05;86.52;101868.81;6229130;22;20046;-75
2023/02/27 07:42:11;;;;;;;0.00;0.00;;;;;;;0.06;86.38;101879.31;6234876;22;20041;-77
2023/02/27 07:44:37;;;;;;;0.00;0.00;;;;;;;0.33;87.08;101880.09;6282286;22;20007;-77
2023/02/27 07:47:02;;;;;;;0.00;0.00;;;;;;;0.90;86.85;101883.94;6283656;22;20036;-78
2023/02/27 07:49:28;;;;;;;0.00;0.00;;;;;;;1.79;84.57;101874.09;6257145;22;20094;-79
2023/02/27 07:54:51;;;;;;;0.10;0.10;;;;;;;4.41;74.37;101898.50;6286727;22;20073;-75
2023/02/27 07:57:16;;;;;;;0.00;0.00;;;;;;;5.34;70.82;101879.69;6284351;22;20025;-76
2023/02/27 07:59:47;;;;;;;0.00;0.00;;;;;;;6.31;66.68;101886.22;6281393;22;20007;-75
2023/02/27 08:02:15;;;;;;;0.10;0.10;;;;;;;7.11;63.97;101886.47;6255414;22;20487;-79
2023/02/27 08:04:57;;;;;;;0.00;0.00;;;;;;;7.96;61.45;101882.25;6283543;22;20003;-77
2023/02/27 08:07:29;;;;;;;0.00;0.00;;;;;;;8.40;58.64;101875.19;6258267;22;20010;-78
2023/02/27 08:09:55;;;;;;;0.00;0.00;;;;;;;7.65;58.96;101891.91;6309092;22;20003;-78
2023/02/27 08:12:26;;;;;;;0.00;0.00;;;;;;;6.21;63.04;101886.56;6310264;22;20431;-77
2023/02/27 08:14:51;;;;;;;0.00;0.00;;;;;;;6.58;66.11;101902.63;6284354;22;20091;-77
2023/02/27 08:17:17;;;;;;;0.08;0.08;;;;;;;8.22;62.55;101903.16;6232194;22;20076;-78
2023/02/27 08:19:44;;;;;;;0.00;0.00;;;;;;;9.96;57.62;101899.31;6284012;22;20007;-77
2023/02/27 08:22:11;;;;;;;0.00;0.00;;;;;;;11.17;53.50;101883.06;6280897;22;20644;-78
2023/02/27 08:24:37;;;;;;;0.00;0.00;;;;;;;12.20;50.36;101892.91;6259766;22;20019;-78
2023/02/27 08:27:03;;;;;;;0.00;0.00;;;;;;;12.80;48.18;101899.06;6282718;22;20131;-78
2023/02/27 08:29:31;;;;;;;0.00;0.00;;;;;;;13.16;46.60;101884.06;6283914;22;20533;-77
2023/02/27 08:31:59;;;;;;;0.00;0.00;;;;;;;13.58;45.24;101888.34;6283861;22;20722;-78
2023/02/27 08:34:26;;;;;;;0.00;0.00;;;;;;;14.10;43.89;101904.53;6309126;22;19991;-78
2023/02/27 08:36:52;;;;;;;0.00;0.00;;;;;;;14.44;43.14;101903.59;6258840;22;20018;-77
2023/02/27 08:39:18;;;;;;;0.10;0.10;;;;;;;14.47;42.12;101884.66;6230231;22;19991;-76
2023/02/27 08:41:44;;;;;;;0.00;0.00;;;;;;;14.78;41.68;101904.31;6232558;22;20060;-78
2023/02/27 08:44:11;;;;;;;0.00;0.00;;;;;;;15.11;41.39;101907.97;6278191;22;20018;-74
2023/02/27 08:46:37;;;;;;;0.00;0.00;;;;;;;16.10;40.10;101913.16;6279524;22;20004;-75
2023/02/27 08:49:12;;;;;;;0.00;0.00;;;;;;;16.81;38.64;101900.78;6275790;22;20018;-77
2023/02/27 08:51:45;;;;;;;0.00;0.00;;;;;;;17.57;38.10;101895.63;6303907;22;20044;-76
2023/02/27 08:54:11;;;;;;;0.00;0.00;;;;;;;18.46;35.30;101906.25;6285627;22;20003;-76
2023/02/27 08:56:38;;;;;;;0.10;0.10;;;;;;;19.10;35.21;101898.13;6281143;22;19991;-76
2023/02/27 08:59:06;;;;;;;0.00;0.00;;;;;;;20.18;33.93;101902.72;6259020;22;20003;-77
2023/02/27 09:01:33;;;;;;;0.00;0.00;;;;;;;21.35;31.79;101909.75;6283076;22;20380;-77
2023/02/27 09:04:00;;;;;;;0.00;0.00;;;;;;;21.79;30.75;101902.91;6282781;22;20015;-78
2023/02/27 09:06:25;;;;;;;0.00;0.00;;;;;;;21.78;29.40;101901.25;6281203;22;19996;-77
2023/02/27 09:08:51;;;;;;;0.00;0.00;;;;;;;21.66;30.45;101907.31;6286428;22;20031;-78
2023/02/27 09:11:16;;;;;;;0.00;0.00;;;;;;;21.58;29.76;101902.44;6258344;22;20377;-78
2023/02/27 09:13:42;;;;;;;0.00;0.00;;;;;;;20.48;32.02;101920.16;6281303;22;20010;-78
2023/02/27 09:16:17;;;;;;;0.00;0.00;;;;;;;20.96;31.94;101903.41;6283234;22;19999;-79
2023/02/27 09:22:30;;;;;;;;;;;;;;;;;;;;;
2023/02/27 09:24:59;;;;;;;0.00;0.00;;;;;;;17.30;35.37;101895.91;6312654;22;20031;-76
2023/02/27 09:27:52;;;;;;;0.00;0.00;;;;;;;16.17;37.20;101894.44;6259916;22;20034;-78
2023/02/27 09:30:17;;;;;;;0.00;0.00;;;;;;;15.88;38.53;101896.75;6279492;22;20397;-76
2023/02/27 09:32:45;;;;;;;0.00;0.00;;;;;;;18.12;35.78;101901.34;6312401;22;20011;-77
2023/02/27 09:35:13;;;;;;;0.00;0.00;;;;;;;19.04;33.38;101899.28;6258986;22;20495;-78
2023/02/27 09:37:39;;;;;;;0.00;0.00;;;;;;;20.35;32.20;101911.41;6285306;22;20417;-77
2023/02/27 09:40:28;;;;;;;0.00;0.00;;;;;;;21.83;30.11;101903.13;6284986;22;20012;-80
2023/02/27 09:43:37;;;;;;;0.00;0.00;;;;;;;23.81;27.71;101919.66;6269838;22;20050;-79
2023/02/27 09:46:06;;;;;;;0.00;0.00;;;;;;;26.56;25.36;101912.25;6291874;22;20003;-80
2023/02/27 09:48:51;;;;;;;0.00;0.00;;;;;;;27.33;22.92;101905.53;6314282;22;20007;-79
2023/02/27 09:51:18;;;;;;;0.00;0.00;;;;;;;26.40;23.08;101919.59;6313512;22;20018;-81
2023/02/27 09:53:51;;;;;;;0.00;0.00;;;;;;;24.69;24.05;101915.25;6313269;22;20007;-77
2023/02/27 09:56:44;;;;;;;0.00;0.00;;;;;;;22.97;26.70;101922.00;6286344;22;20039;-78
2023/02/27 09:59:15;;;;;;;0.00;0.00;;;;;;;23.74;26.42;101924.88;6267750;22;19991;-80
2023/02/27 10:01:49;;;;;;;0.00;0.00;;;;;;;24.72;26.20;101920.19;6311809;22;20055;-78
2023/02/27 10:04:33;;;;;;;0.00;0.00;;;;;;;26.20;23.70;101930.41;6313625;22;20071;-77
2023/02/27 10:07:11;;;;;;;0.00;0.00;;;;;;;27.21;22.32;101923.16;6285948;22;20070;-79
2023/02/27 10:09:56;;;;;;;0.00;0.00;;;;;;;29.24;20.70;101932.34;6313343;22;20007;-79
2023/02/27 10:12:21;;;;;;;;;;;;;;;31.18;19.12;101940.41;6311800;22;19999;-77
2023/02/27 10:14:56;;;;;;;0.00;0.00;;;;;;;31.39;18.13;101932.38;6283382;22;19945;-78
2023/02/27 10:17:27;;;;;;;0.00;0.00;;;;;;;30.70;17.65;101941.38;6312275;22;20062;-76
2023/02/27 10:19:54;;;;;;;0.00;0.00;;;;;;;29.94;18.60;101925.41;6309826;22;20018;-74
2023/02/27 10:22:32;;;;;;;0.00;0.00;;;;;;;28.57;19.03;101929.06;6310643;22;19995;-77
2023/02/27 10:25:12;;;;;;;0.00;0.00;;;;;;;27.05;20.94;101927.78;6278958;22;20050;-78
2023/02/27 10:27:38;;;;;;;0.00;0.00;;;;;;;26.05;21.97;101920.59;6285898;22;20014;-76
2023/02/27 10:30:16;;;;;;;0.00;0.00;;;;;;;24.04;23.19;101909.28;6279356;22;20018;-75
2023/02/27 10:32:44;;;;;;;0.00;0.00;;;;;;;22.51;25.44;101906.28;6310840;22;20027;-75
2023/02/27 10:35:26;;;;;;;0.00;0.00;;;;;;;22.29;26.75;101921.72;6278431;22;19995;-75
2023/02/27 10:38:14;;;;;;;0.00;0.00;;;;;;;22.22;26.01;101896.25;6311148;22;20025;-76
2023/02/27 10:40:44;;;;;;;0.00;0.00;;;;;;;21.06;27.89;101919.13;6306737;22;20011;-74
2023/02/27 10:43:17;;;;;;;0.00;0.00;;;;;;;20.83;27.88;101904.16;6283024;22;20437;-76
2023/02/27 10:45:43;;;;;;;0.00;0.00;;;;;;;19.67;29.35;101902.13;6280289;22;20026;-77
2023/02/27 10:48:13;;;;;;;0.00;0.00;;;;;;;19.25;30.50;101900.81;6280535;22;20345;-73
2023/02/27 10:50:41;;;;;;;0.00;0.00;;;;;;;19.42;30.85;101900.41;6310032;22;20003;-76
2023/02/27 10:53:20;;;;;;;0.00;0.00;;;;;;;19.19;30.87;101908.34;6282194;22;20011;-74
2023/02/27 10:56:00;;;;;;;0.00;0.00;;;;;;;19.39;31.14;101889.91;6282283;22;20010;-74
2023/02/27 10:58:33;;;;;;;0.00;0.00;;;;;;;21.26;29.77;101902.13;6278696;22;19999;-76
2023/02/27 11:01:01;;;;;;;0.00;0.00;;;;;;;23.83;26.05;101904.22;6283056;22;19999;-76
2023/02/27 11:03:31;;;;;;;0.00;0.00;;;;;;;24.26;24.51;101905.56;6279599;22;20003;-76
2023/02/27 11:06:11;;;;;;;0.00;0.00;;;;;;;22.23;26.57;101893.13;6313639;22;20086;-75
2023/02/27 11:08:37;;;;;;;0.00;0.00;;;;;;;20.21;28.37;101893.81;6283470;22;20049;-75
2023/02/27 11:11:05;;;;;;;0.00;0.00;;;;;;;19.17;30.20;101895.88;6259880;22;20436;-74
2023/02/27 11:13:37;;;;;;;0.00;0.00;;;;;;;18.79;30.98;101910.25;6281211;22;20016;-73
2023/02/27 11:16:10;;;;;;;0.00;0.00;;;;;;;18.26;31.98;101899.66;6311019;22;20017;-75
2023/02/27 11:18:39;;;;;;;0.00;0.00;;;;;;;17.93;32.73;101890.91;6287167;22;20011;-74
2023/02/27 11:21:12;;;;;;;0.00;0.00;;;;;;;18.41;32.52;101903.47;6285731;22;20010;-76
2023/02/27 11:23:54;;;;;;;0.00;0.00;;;;;;;18.95;31.67;101891.59;6282182;22;20010;-76
2023/02/27 11:26:46;;;;;;;0.00;0.00;;;;;;;19.87;30.02;101900.28;6284123;22;20134;-75
2023/02/27 11:29:17;;;;;;;0.00;0.00;;;;;;;21.43;28.24;101890.41;6282777;22;20033;-74
2023/02/27 11:32:12;;;;;;;0.00;0.00;;;;;;;19.94;28.85;101895.22;6309728;22;20034;-73
2023/02/27 11:34:45;;;;;;;0.00;0.00;;;;;;;19.61;30.91;101883.03;6275916;22;20007;-77
2023/02/27 11:37:31;;;;;;;0.00;0.00;;;;;;;23.66;27.67;101895.75;6281273;22;20073;-76
2023/02/27 11:40:09;;;;;;;0.00;0.00;;;;;;;27.28;23.13;101903.78;6285573;22;20015;-76
2023/02/27 11:42:49;;;;;;;0.00;0.00;;;;;;;30.03;19.96;101888.56;6310111;22;19999;-76
2023/02/27 11:45:39;;;;;;;0.00;0.00;;;;;;;31.41;19.37;101890.44;6313118;22;20011;-75
2023/02/27 11:48:19;;;;;;;0.00;0.00;;;;;;;29.80;18.85;101882.72;6287133;22;20003;-76
2023/02/27 11:50:54;;;;;;;0.00;0.00;;;;;;;33.02;17.60;101879.25;6311772;22;20018;-75
2023/02/27 11:53:38;;;;;;;0.00;0.00;;;;;;;37.26;14.89;101881.09;6310362;22;20014;-74
2023/02/27 11:56:09;;;;;;;0.00;0.00;;;;;;;40.66;10.81;101887.72;6287007;22;20660;-74
2023/02/27 11:58:43;;;;;;;0.00;0.00;;;;;;;41.82;10.31;101875.22;6282550;22;20003;-76
2023/02/27 12:01:40;;;;;;;0.00;0.00;;;;;;;41.18;10.41;101861.16;6311781;22;20034;-75
2023/02/27 12:04:24;;;;;;;0.00;0.00;;;;;;;41.61;9.77;101876.53;6310868;22;19999;-74
2023/02/27 12:07:02;;;;;;;0.00;0.00;;;;;;;37.92;10.79;101868.78;6281612;22;20007;-75